createdAt,value
2023-04-09T00:01:06.886Z,99391.75
2023-04-09T00:03:08.714Z,99391.16
2023-04-09T00:05:19.052Z,99389.53
2023-04-09T00:07:20.676Z,99389.53
2023-04-09T00:09:22.106Z,99390.59
2023-04-09T00:11:23.734Z,99386.78
2023-04-09T00:13:38.613Z,99385.66
2023-04-09T00:15:41.061Z,99385.41
2023-04-09T00:17:42.524Z,99386.50
2023-04-09T00:19:44.622Z,99383.75
2023-04-09T00:21:46.473Z,99382.13
2023-04-09T00:23:51.128Z,99382.13
2023-04-09T00:25:52.698Z,99384.28
2023-04-09T00:27:54.838Z,99382.34
2023-04-09T00:29:56.589Z,99385.09
2023-04-09T00:31:58.304Z,99385.66
2023-04-09T00:34:01.829Z,99384.84
2023-04-09T00:36:06.567Z,99385.09
2023-04-09T00:38:08.038Z,99388.69
2023-04-09T00:40:09.984Z,99379.38
2023-04-09T00:42:11.688Z,99384.03
2023-04-09T00:44:16.057Z,99385.09
2023-04-09T00:46:18.117Z,99386.22
2023-04-09T00:48:20.771Z,99385.09
2023-04-09T00:50:23.453Z,99386.78
2023-04-09T00:52:25.651Z,99384.28
2023-04-09T00:54:27.773Z,99387.03
2023-04-09T00:56:30.175Z,99384.03
2023-04-09T00:58:32.169Z,99387.59
2023-04-09T01:00:33.772Z,99386.78
2023-04-09T01:02:38.391Z,99389.53
2023-04-09T01:04:42.786Z,99387.59
2023-04-09T01:06:52.244Z,99382.91
2023-04-09T01:09:21.805Z,99382.34
2023-04-09T01:11:32.137Z,99385.94
2023-04-09T01:14:05.198Z,99383.47
2023-04-09T01:16:12.470Z,99377.13
2023-04-09T01:18:40.078Z,99384.81
2023-04-09T01:20:47.984Z,99380.13
2023-04-09T01:23:14.230Z,99382.88
2023-04-09T01:25:39.843Z,99382.06
2023-04-09T01:28:12.432Z,99377.94
2023-04-09T01:30:21.542Z,99377.66
2023-04-09T01:32:25.729Z,99381.50
2023-04-09T01:34:28.937Z,99382.31
2023-04-09T01:36:32.237Z,99378.75
2023-04-09T01:38:41.190Z,99378.75
2023-04-09T01:40:42.859Z,99377.09
2023-04-09T01:42:46.244Z,99379.84
2023-04-09T01:44:48.111Z,99382.84
2023-04-09T01:46:50.766Z,99380.09
2023-04-09T01:48:52.749Z,99375.44
2023-04-09T01:50:54.541Z,99383.13
2023-04-09T01:52:56.824Z,99376.28
2023-04-09T01:54:58.293Z,99380.09
2023-04-09T01:56:59.816Z,99382.84
2023-04-09T01:59:01.537Z,99380.09
2023-04-09T02:01:09.220Z,99388.34
2023-04-09T02:03:23.379Z,99384.53
2023-04-09T02:05:29.123Z,99388.34
2023-04-09T02:07:42.734Z,99374.88
2023-04-09T02:09:47.740Z,99377.34
2023-04-09T02:11:51.022Z,99375.44
2023-04-09T02:13:55.706Z,99371.84
2023-04-09T02:16:00.001Z,99383.13
2023-04-09T02:18:01.876Z,99377.63
2023-04-09T02:20:04.491Z,99376.53
2023-04-09T02:22:06.046Z,99380.38
2023-04-09T02:24:11.541Z,99377.34
2023-04-09T02:26:13.067Z,99374.59
2023-04-09T02:28:14.770Z,99377.34
2023-04-09T02:30:18.559Z,99372.69
2023-04-09T02:32:20.187Z,99374.59
2023-04-09T02:34:24.434Z,99369.09
2023-04-09T02:36:26.520Z,99372.69
2023-04-09T02:38:28.097Z,99374.59
2023-04-09T02:40:30.372Z,99378.19
2023-04-09T02:42:33.893Z,99377.34
2023-04-09T02:44:35.450Z,99375.16
2023-04-09T02:46:40.843Z,99383.41
2023-04-09T02:48:49.671Z,99384.47
2023-04-09T02:50:51.449Z,99376.50
2023-04-09T02:52:52.963Z,99379.25
2023-04-09T02:54:54.512Z,99377.59
2023-04-09T02:56:56.700Z,99377.59
2023-04-09T02:58:58.279Z,99372.94
2023-04-09T03:00:59.993Z,99371.25
2023-04-09T03:03:07.319Z,99374.84
2023-04-09T03:05:09.542Z,99370.19
2023-04-09T03:07:10.991Z,99373.75
2023-04-09T03:09:13.449Z,99367.44
2023-04-09T03:11:15.810Z,99369.63
2023-04-09T03:13:17.427Z,99374.53
2023-04-09T03:15:19.134Z,99373.44
2023-04-09T03:17:20.733Z,99370.69
2023-04-09T03:19:22.185Z,99369.03
2023-04-09T03:21:23.637Z,99368.47
2023-04-09T03:23:28.513Z,99372.06
2023-04-09T03:25:30.262Z,99372.34
2023-04-09T03:27:32.663Z,99375.59
2023-04-09T03:29:36.104Z,99374.22
2023-04-09T03:31:37.755Z,99381.59
2023-04-09T03:33:39.896Z,99380.47
2023-04-09T03:35:43.287Z,99381.00
2023-04-09T03:37:46.261Z,99373.50
2023-04-09T03:39:55.294Z,99378.69
2023-04-09T03:41:59.768Z,99381.69
2023-04-09T03:44:05.677Z,99376.72
2023-04-09T03:46:28.259Z,99383.25
2023-04-09T03:48:32.080Z,99380.19
2023-04-09T03:50:39.445Z,99381.81
2023-04-09T03:52:42.322Z,99385.09
2023-04-09T03:54:44.673Z,99379.31
2023-04-09T03:56:51.266Z,99388.88
2023-04-09T03:58:57.438Z,99381.69
2023-04-09T04:01:09.462Z,99389.88
2023-04-09T04:03:19.187Z,99384.31
2023-04-09T04:05:40.280Z,99394.69
2023-04-09T04:07:45.391Z,99392.97
2023-04-09T04:09:51.680Z,99392.91
2023-04-09T04:11:55.367Z,99390.13
2023-04-09T04:13:59.941Z,99390.88
2023-04-09T04:16:02.138Z,99396.06
2023-04-09T04:18:03.819Z,99396.31
2023-04-09T04:20:26.505Z,99394.34
2023-04-09T04:22:36.579Z,99397.88
2023-04-09T04:24:40.276Z,99404.09
2023-04-09T04:26:42.387Z,99404.03
2023-04-09T04:28:49.022Z,99405.38
2023-04-09T04:31:02.294Z,99403.41
2023-04-09T04:33:06.423Z,99400.09
2023-04-09T04:35:18.755Z,99414.31
2023-04-09T04:37:24.514Z,99413.75
2023-04-09T04:39:31.339Z,99413.38
2023-04-09T04:41:37.773Z,99422.16
2023-04-09T04:43:49.636Z,99419.91
2023-04-09T04:45:56.185Z,99425.06
2023-04-09T04:48:00.193Z,99425.81
2023-04-09T04:50:01.723Z,99423.31
2023-04-09T04:52:07.769Z,99427.38
2023-04-09T04:54:10.466Z,99433.13
2023-04-09T04:56:14.498Z,99427.09
2023-04-09T04:58:24.737Z,99434.72
2023-04-09T05:00:33.471Z,99436.06
2023-04-09T05:02:37.645Z,99436.31
2023-04-09T05:04:53.392Z,99440.16
2023-04-09T05:07:01.236Z,99428.34
2023-04-09T05:09:02.872Z,99435.72
2023-04-09T05:11:13.118Z,99446.69
2023-04-09T05:13:16.944Z,99436.22
2023-04-09T05:15:18.837Z,99438.75
2023-04-09T05:17:24.681Z,99433.25
2023-04-09T05:19:26.274Z,99434.91
2023-04-09T05:21:33.715Z,99440.38
2023-04-09T05:23:36.785Z,99436.31
2023-04-09T05:25:38.892Z,99429.75
2023-04-09T05:27:43.092Z,99436.31
2023-04-09T05:29:45.440Z,99445.34
2023-04-09T05:31:47.159Z,99436.31
2023-04-09T05:34:06.282Z,99441.78
2023-04-09T05:36:27.356Z,99445.34
2023-04-09T05:38:28.916Z,99446.78
2023-04-09T05:40:33.362Z,99444.88
2023-04-09T05:42:36.014Z,99447.34
2023-04-09T05:44:42.103Z,99444.59
2023-04-09T05:46:49.390Z,99448.19
2023-04-09T05:48:55.640Z,99450.66
2023-04-09T05:51:00.339Z,99449.31
2023-04-09T05:53:03.608Z,99449.09
2023-04-09T05:55:12.718Z,99445.25
2023-04-09T05:57:20.142Z,99450.50
2023-04-09T05:59:32.197Z,99448.09
2023-04-09T06:01:35.439Z,99458.53
2023-04-09T06:03:38.564Z,99452.81
2023-04-09T06:05:40.552Z,99458.03
2023-04-09T06:07:42.313Z,99460.28
2023-04-09T06:09:44.294Z,99458.09
2023-04-09T06:11:46.025Z,99448.34
2023-04-09T06:13:53.831Z,99464.88
2023-04-09T06:15:55.584Z,99462.19
2023-04-09T06:17:59.295Z,99469.38
2023-04-09T06:20:00.994Z,99456.91
2023-04-09T06:22:04.855Z,99460.34
2023-04-09T06:24:09.547Z,99455.81
2023-04-09T06:26:11.145Z,99458.13
2023-04-09T06:28:12.954Z,99462.41
2023-04-09T06:30:14.448Z,99460.06
2023-04-09T06:32:16.560Z,99457.16
2023-04-09T06:34:18.138Z,99455.13
2023-04-09T06:36:20.032Z,99465.13
2023-04-09T06:38:21.568Z,99454.81
2023-04-09T06:40:27.322Z,99465.31
2023-04-09T06:42:31.553Z,99469.56
2023-04-09T06:44:43.819Z,99466.91
2023-04-09T06:46:45.678Z,99469.47
2023-04-09T06:48:47.619Z,99461.56
2023-04-09T06:50:49.234Z,99469.34
2023-04-09T06:52:51.756Z,99464.25
2023-04-09T06:54:53.275Z,99462.94
2023-04-09T06:56:57.893Z,99469.03
2023-04-09T06:58:59.442Z,99461.34
2023-04-09T07:01:01.195Z,99461.69
2023-04-09T07:03:07.885Z,99463.09
2023-04-09T07:05:09.824Z,99461.75
2023-04-09T07:07:15.277Z,99465.88
2023-04-09T07:09:17.653Z,99473.66
2023-04-09T07:11:19.198Z,99468.16
2023-04-09T07:13:20.721Z,99465.66
2023-04-09T07:15:22.212Z,99473.94
2023-04-09T07:17:23.958Z,99470.63
2023-04-09T07:19:25.422Z,99472.00
2023-04-09T07:21:28.358Z,99469.22
2023-04-09T07:23:29.975Z,99469.78
2023-04-09T07:25:33.726Z,99471.69
2023-04-09T07:27:35.267Z,99465.03
2023-04-09T07:29:36.899Z,99465.03
2023-04-09T07:31:38.461Z,99471.13
2023-04-09T07:33:40.682Z,99467.75
2023-04-09T07:35:42.480Z,99467.47
2023-04-09T07:37:44.280Z,99465.22
2023-04-09T07:39:46.627Z,99464.91
2023-04-09T07:41:48.987Z,99453.28
2023-04-09T07:43:50.433Z,99460.72
2023-04-09T07:45:52.610Z,99453.22
2023-04-09T07:47:54.340Z,99456.50
2023-04-09T07:49:56.972Z,99459.81
2023-04-09T07:52:02.225Z,99452.59
2023-04-09T07:54:03.689Z,99452.56
2023-04-09T07:56:14.791Z,99451.44
2023-04-09T07:58:16.382Z,99454.72
2023-04-09T08:00:18.078Z,99456.34
2023-04-09T08:02:19.702Z,99454.63
2023-04-09T08:04:21.670Z,99464.25
2023-04-09T08:06:23.295Z,99460.03
2023-04-09T08:08:24.927Z,99454.47
2023-04-09T08:10:26.466Z,99460.50
2023-04-09T08:12:27.906Z,99457.69
2023-04-09T08:14:29.428Z,99463.69
2023-04-09T08:16:31.131Z,99460.31
2023-04-09T08:18:32.656Z,99453.91
2023-04-09T08:20:34.273Z,99456.88
2023-04-09T08:22:35.812Z,99457.94
2023-04-09T08:24:38.674Z,99455.13
2023-04-09T08:26:41.136Z,99456.75
2023-04-09T08:28:42.851Z,99462.25
2023-04-09T08:30:44.754Z,99459.13
2023-04-09T08:32:47.037Z,99457.44
2023-04-09T08:34:48.621Z,99461.56
2023-04-09T08:36:50.340Z,99462.53
2023-04-09T08:38:54.734Z,99459.13
2023-04-09T08:40:59.606Z,99464.88
2023-04-09T08:43:05.627Z,99462.88
2023-04-09T08:45:08.712Z,99457.47
2023-04-09T08:47:12.693Z,99460.94
2023-04-09T08:49:14.387Z,99460.00
2023-04-09T08:51:17.012Z,99452.38
2023-04-09T08:53:19.331Z,99452.75
2023-04-09T08:55:21.287Z,99451.78
2023-04-09T08:57:22.774Z,99449.69
2023-04-09T08:59:24.528Z,99461.97
2023-04-09T09:01:30.682Z,99449.09
2023-04-09T09:03:32.701Z,99455.59
2023-04-09T09:05:45.545Z,99451.31
2023-04-09T09:07:54.497Z,99454.75
2023-04-09T09:10:03.199Z,99454.34
2023-04-09T09:12:05.052Z,99445.03
2023-04-09T09:14:15.573Z,99449.59
2023-04-09T09:16:17.082Z,99454.97
2023-04-09T09:18:21.121Z,99446.44
2023-04-09T09:20:27.131Z,99449.84
2023-04-09T09:22:37.574Z,99444.13
2023-04-09T09:24:50.397Z,99446.97
2023-04-09T09:26:52.789Z,99453.59
2023-04-09T09:28:55.732Z,99451.94
2023-04-09T09:31:11.172Z,99453.97
2023-04-09T09:33:12.972Z,99457.69
2023-04-09T09:35:14.506Z,99451.69
2023-04-09T09:37:28.655Z,99453.75
2023-04-09T09:39:44.439Z,99456.28
2023-04-09T09:41:47.360Z,99452.31
2023-04-09T09:43:52.147Z,99460.56
2023-04-09T09:45:53.990Z,99453.78
2023-04-09T09:47:55.674Z,99461.38
2023-04-09T09:49:57.353Z,99459.84
2023-04-09T09:52:02.945Z,99455.22
2023-04-09T09:54:08.070Z,99460.69
2023-04-09T09:56:15.752Z,99456.44
2023-04-09T09:58:23.562Z,99449.72
2023-04-09T10:00:26.240Z,99452.72
2023-04-09T10:02:32.926Z,99452.13
2023-04-09T10:04:38.732Z,99453.75
2023-04-09T10:06:45.039Z,99449.34
2023-04-09T10:08:49.154Z,99447.66
2023-04-09T10:10:52.476Z,99446.66
2023-04-09T10:12:54.054Z,99450.06
2023-04-09T10:14:56.525Z,99440.38
2023-04-09T10:16:58.498Z,99451.81
2023-04-09T10:19:01.571Z,99441.59
2023-04-09T10:21:10.449Z,99439.56
2023-04-09T10:23:24.284Z,99434.13
2023-04-09T10:25:26.329Z,99434.22
2023-04-09T10:27:37.383Z,99441.41
2023-04-09T10:29:46.949Z,99432.56
2023-04-09T10:31:55.961Z,99434.00
2023-04-09T10:34:03.930Z,99432.66
2023-04-09T10:36:10.541Z,99431.56
2023-04-09T10:38:14.513Z,99422.88
2023-04-09T10:40:23.757Z,99422.28
2023-04-09T10:42:40.999Z,99424.13
2023-04-09T10:44:46.906Z,99426.69
2023-04-09T10:46:54.444Z,99425.66
2023-04-09T10:49:21.007Z,99418.53
2023-04-09T10:51:22.896Z,99411.91
2023-04-09T10:53:26.101Z,99418.06
2023-04-09T10:55:40.703Z,99414.78
2023-04-09T10:57:43.086Z,99407.53
2023-04-09T10:59:52.916Z,99408.09
2023-04-09T11:01:54.662Z,99399.16
2023-04-09T11:04:17.177Z,99401.06
2023-04-09T11:06:21.921Z,99401.81
2023-04-09T11:08:23.816Z,99398.16
2023-04-09T11:10:25.262Z,99402.00
2023-04-09T11:12:26.696Z,99393.69
2023-04-09T11:14:28.337Z,99396.69
2023-04-09T11:16:31.422Z,99399.19
2023-04-09T11:18:35.006Z,99390.19
2023-04-09T11:20:36.678Z,99399.94
2023-04-09T11:22:38.769Z,99399.97
2023-04-09T11:24:42.128Z,99388.66
2023-04-09T11:26:43.621Z,99393.56
2023-04-09T11:28:45.147Z,99388.50
2023-04-09T11:30:47.165Z,99387.84
2023-04-09T11:32:50.102Z,99390.31
2023-04-09T11:34:58.822Z,99389.97
2023-04-09T11:37:05.078Z,99386.69
2023-04-09T11:39:06.748Z,99389.00
2023-04-09T11:41:21.584Z,99395.56
2023-04-09T11:43:24.577Z,99392.09
2023-04-09T11:45:28.212Z,99390.59
2023-04-09T11:47:29.891Z,99387.44
2023-04-09T11:49:31.475Z,99391.00
2023-04-09T11:51:36.000Z,99387.88
2023-04-09T11:53:38.476Z,99384.41
2023-04-09T11:55:40.273Z,99391.44
2023-04-09T11:57:47.668Z,99395.91
2023-04-09T11:59:53.082Z,99384.09
2023-04-09T12:01:57.775Z,99391.31
2023-04-09T12:04:00.584Z,99390.03
2023-04-09T12:06:03.893Z,99387.41
2023-04-09T12:08:10.784Z,99384.78
2023-04-09T12:10:12.390Z,99388.56
2023-04-09T12:12:18.886Z,99390.22
2023-04-09T12:14:22.088Z,99388.56
2023-04-09T12:16:25.736Z,99387.25
2023-04-09T12:18:27.253Z,99386.25
2023-04-09T12:20:47.236Z,99386.41
2023-04-09T12:22:48.789Z,99380.50
2023-04-09T12:24:50.595Z,99384.69
2023-04-09T12:26:52.306Z,99382.38
2023-04-09T12:28:53.982Z,99379.22
2023-04-09T12:30:55.795Z,99379.69
2023-04-09T12:32:58.522Z,99378.50
2023-04-09T12:35:00.120Z,99371.41
2023-04-09T12:37:01.693Z,99375.47
2023-04-09T12:39:03.155Z,99384.47
2023-04-09T12:41:04.839Z,99369.22
2023-04-09T12:43:06.723Z,99367.88
2023-04-09T12:45:11.185Z,99369.53
2023-04-09T12:47:13.278Z,99371.16
2023-04-09T12:49:20.146Z,99356.59
2023-04-09T12:51:21.872Z,99369.69
2023-04-09T12:53:23.245Z,99367.25
2023-04-09T12:55:24.731Z,99361.97
2023-04-09T12:57:26.727Z,99361.31
2023-04-09T12:59:28.128Z,99362.78
2023-04-09T13:01:29.709Z,99356.50
2023-04-09T13:03:32.982Z,99349.13
2023-04-09T13:05:43.890Z,99352.34
2023-04-09T13:07:45.875Z,99350.00
2023-04-09T13:09:48.926Z,99346.84
2023-04-09T13:11:51.980Z,99339.44
2023-04-09T13:13:53.990Z,99345.66
2023-04-09T13:15:56.286Z,99342.88
2023-04-09T13:17:58.075Z,99345.66
2023-04-09T13:19:59.878Z,99341.56
2023-04-09T13:22:01.399Z,99338.75
2023-04-09T13:24:04.115Z,99342.69
2023-04-09T13:26:05.687Z,99337.44
2023-04-09T13:28:07.550Z,99331.66
2023-04-09T13:30:09.268Z,99333.63
2023-04-09T13:32:11.443Z,99334.25
2023-04-09T13:34:13.182Z,99326.84
2023-04-09T13:36:14.689Z,99332.22
2023-04-09T13:38:16.196Z,99327.56
2023-04-09T13:40:17.965Z,99332.47
2023-04-09T13:42:21.662Z,99325.38
2023-04-09T13:44:24.592Z,99323.84
2023-04-09T13:46:26.381Z,99325.91
2023-04-09T13:48:27.841Z,99321.91
2023-04-09T13:50:29.268Z,99330.19
2023-04-09T13:52:31.935Z,99318.69
2023-04-09T13:54:33.991Z,99320.75
2023-04-09T13:56:36.138Z,99321.97
2023-04-09T13:58:45.967Z,99317.16
2023-04-09T14:00:48.132Z,99315.28
2023-04-09T14:02:53.658Z,99318.78
2023-04-09T14:04:55.623Z,99313.34
2023-04-09T14:06:57.969Z,99325.38
2023-04-09T14:08:59.445Z,99319.66
2023-04-09T14:11:02.181Z,99317.78
2023-04-09T14:13:08.565Z,99309.84
2023-04-09T14:15:10.376Z,99308.00
2023-04-09T14:17:11.909Z,99315.00
2023-04-09T14:19:13.369Z,99305.63
2023-04-09T14:21:17.921Z,99305.94
2023-04-09T14:23:19.445Z,99299.88
2023-04-09T14:25:21.006Z,99301.00
2023-04-09T14:27:24.585Z,99296.59
2023-04-09T14:29:26.167Z,99297.94
2023-04-09T14:31:27.796Z,99297.13
2023-04-09T14:33:30.503Z,99298.75
2023-04-09T14:35:32.129Z,99289.28
2023-04-09T14:37:39.487Z,99284.84
2023-04-09T14:39:41.104Z,99285.19
2023-04-09T14:41:42.666Z,99285.78
2023-04-09T14:43:46.903Z,99288.88
2023-04-09T14:45:48.472Z,99281.16
2023-04-09T14:47:50.174Z,99281.78
2023-04-09T14:49:51.638Z,99284.66
2023-04-09T14:51:53.259Z,99289.09
2023-04-09T14:53:54.740Z,99286.59
2023-04-09T14:55:58.766Z,99290.81
2023-04-09T14:58:03.595Z,99278.38
2023-04-09T15:00:10.931Z,99285.56
2023-04-09T15:02:12.708Z,99284.25
2023-04-09T15:04:14.299Z,99285.34
2023-04-09T15:06:15.955Z,99280.38
2023-04-09T15:08:17.539Z,99282.34
2023-04-09T15:10:20.652Z,99283.25
2023-04-09T15:12:22.305Z,99283.25
2023-04-09T15:14:24.037Z,99281.91
2023-04-09T15:16:28.328Z,99279.47
2023-04-09T15:18:29.817Z,99282.84
2023-04-09T15:20:36.366Z,99276.25
2023-04-09T15:22:38.107Z,99276.88
2023-04-09T15:24:39.541Z,99276.13
2023-04-09T15:26:40.979Z,99272.34
2023-04-09T15:28:42.512Z,99275.41
2023-04-09T15:30:44.353Z,99275.19
2023-04-09T15:32:46.181Z,99274.97
2023-04-09T15:34:50.427Z,99273.34
2023-04-09T15:36:52.393Z,99273.44
2023-04-09T15:38:54.441Z,99270.94
2023-04-09T15:40:57.112Z,99271.28
2023-04-09T15:42:58.557Z,99267.97
2023-04-09T15:45:00.147Z,99263.88
2023-04-09T15:47:01.692Z,99267.25
2023-04-09T15:49:03.405Z,99264.75
2023-04-09T15:51:05.321Z,99265.91
2023-04-09T15:53:06.776Z,99265.38
2023-04-09T15:55:11.043Z,99256.22
2023-04-09T15:57:15.888Z,99265.38
2023-04-09T15:59:21.041Z,99268.97
2023-04-09T16:01:22.547Z,99267.00
2023-04-09T16:03:24.674Z,99262.59
2023-04-09T16:05:26.207Z,99259.84
2023-04-09T16:07:27.680Z,99261.78
2023-04-09T16:09:29.082Z,99273.69
2023-04-09T16:11:33.050Z,99266.50
2023-04-09T16:13:34.706Z,99265.38
2023-04-09T16:15:36.664Z,99272.88
2023-04-09T16:17:41.187Z,99264.03
2023-04-09T16:19:43.178Z,99261.56
2023-04-09T16:21:45.595Z,99273.47
2023-04-09T16:23:50.153Z,99261.56
2023-04-09T16:25:54.400Z,99259.94
2023-04-09T16:27:56.218Z,99265.16
2023-04-09T16:29:57.892Z,99262.69
2023-04-09T16:31:59.854Z,99263.50
2023-04-09T16:34:01.743Z,99264.63
2023-04-09T16:36:03.441Z,99267.94
2023-04-09T16:38:07.169Z,99267.63
2023-04-09T16:40:13.417Z,99262.59
2023-04-09T16:42:14.877Z,99272.28
2023-04-09T16:44:18.459Z,99265.59
2023-04-09T16:46:19.931Z,99262.81
2023-04-09T16:48:23.521Z,99273.31
2023-04-09T16:50:26.216Z,99264.16
2023-04-09T16:52:27.795Z,99271.88
2023-04-09T16:54:34.546Z,99265.50
2023-04-09T16:56:38.763Z,99263.22
2023-04-09T16:58:42.969Z,99255.22
2023-04-09T17:00:46.947Z,99265.22
2023-04-09T17:02:49.628Z,99260.78
2023-04-09T17:04:51.510Z,99262.72
2023-04-09T17:06:53.273Z,99263.03
2023-04-09T17:08:58.692Z,99259.94
2023-04-09T17:11:03.145Z,99261.88
2023-04-09T17:13:04.758Z,99266.94
2023-04-09T17:15:07.326Z,99272.78
2023-04-09T17:17:11.853Z,99275.66
2023-04-09T17:19:16.555Z,99270.47
2023-04-09T17:21:17.967Z,99275.00
2023-04-09T17:23:19.668Z,99274.56
2023-04-09T17:25:21.350Z,99276.88
2023-04-09T17:27:23.024Z,99283.59
2023-04-09T17:29:25.047Z,99271.25
2023-04-09T17:31:27.609Z,99284.34
2023-04-09T17:33:29.098Z,99293.06
2023-04-09T17:35:30.807Z,99283.16
2023-04-09T17:37:32.417Z,99287.94
2023-04-09T17:39:33.869Z,99282.19
2023-04-09T17:41:36.477Z,99283.88
2023-04-09T17:43:38.064Z,99285.31
2023-04-09T17:45:39.918Z,99285.09
2023-04-09T17:47:41.944Z,99282.09
2023-04-09T17:49:43.892Z,99279.91
2023-04-09T17:51:45.555Z,99282.75
2023-04-09T17:53:53.660Z,99290.00
2023-04-09T17:55:55.244Z,99290.06
2023-04-09T17:57:56.674Z,99293.44
2023-04-09T17:59:58.126Z,99296.75
2023-04-09T18:01:59.949Z,99295.19
2023-04-09T18:04:02.023Z,99299.94
2023-04-09T18:06:04.048Z,99301.94
2023-04-09T18:08:08.736Z,99301.19
2023-04-09T18:10:10.471Z,99299.31
2023-04-09T18:12:12.068Z,99298.25
2023-04-09T18:14:17.162Z,99303.22
2023-04-09T18:16:20.787Z,99296.66
2023-04-09T18:18:22.544Z,99295.28
2023-04-09T18:20:24.038Z,99299.16
2023-04-09T18:22:26.875Z,99300.88
2023-04-09T18:24:29.249Z,99300.88
2023-04-09T18:26:31.466Z,99301.19
2023-04-09T18:28:34.466Z,99306.16
2023-04-09T18:30:41.652Z,99309.22
2023-04-09T18:32:43.518Z,99308.72
2023-04-09T18:34:47.867Z,99313.16
2023-04-09T18:36:50.156Z,99315.41
2023-04-09T18:38:51.982Z,99315.97
2023-04-09T18:40:53.986Z,99316.81
2023-04-09T18:42:55.585Z,99327.34
2023-04-09T18:44:57.003Z,99325.97
2023-04-09T18:46:59.651Z,99330.97
2023-04-09T18:49:01.623Z,99337.41
2023-04-09T18:51:03.307Z,99340.16
2023-04-09T18:53:05.986Z,99337.13
2023-04-09T18:55:08.219Z,99341.00
2023-04-09T18:57:11.613Z,99340.47
2023-04-09T18:59:13.132Z,99343.53
2023-04-09T19:01:19.852Z,99343.53
2023-04-09T19:03:22.102Z,99355.16
2023-04-09T19:05:23.756Z,99352.72
2023-04-09T19:07:25.942Z,99353.50
2023-04-09T19:09:27.603Z,99357.66
2023-04-09T19:11:29.191Z,99366.25
2023-04-09T19:13:31.114Z,99364.56
2023-04-09T19:15:35.713Z,99367.66
2023-04-09T19:17:37.520Z,99366.81
2023-04-09T19:19:39.402Z,99361.84
2023-04-09T19:21:41.229Z,99367.69
2023-04-09T19:23:43.329Z,99366.31
2023-04-09T19:25:47.780Z,99372.41
2023-04-09T19:27:49.536Z,99367.47
2023-04-09T19:29:51.114Z,99368.59
2023-04-09T19:31:52.848Z,99372.75
2023-04-09T19:33:54.324Z,99378.00
2023-04-09T19:35:59.325Z,99376.94
2023-04-09T19:38:04.085Z,99382.75
2023-04-09T19:40:07.119Z,99378.34
2023-04-09T19:42:08.570Z,99378.91
2023-04-09T19:44:10.229Z,99380.31
2023-04-09T19:46:14.697Z,99376.19
2023-04-09T19:48:16.279Z,99379.22
2023-04-09T19:50:18.140Z,99373.44
2023-04-09T19:52:20.912Z,99387.00
2023-04-09T19:54:25.613Z,99386.47
2023-04-09T19:56:27.056Z,99379.88
2023-04-09T19:58:28.531Z,99392.00
2023-04-09T20:00:30.703Z,99393.41
2023-04-09T20:02:32.544Z,99395.63
2023-04-09T20:04:34.290Z,99395.09
2023-04-09T20:06:35.761Z,99395.38
2023-04-09T20:08:37.917Z,99393.47
2023-04-09T20:10:44.792Z,99393.19
2023-04-09T20:12:53.474Z,99395.72
2023-04-09T20:14:58.710Z,99382.75
2023-04-09T20:17:00.264Z,99383.00
2023-04-09T20:19:04.887Z,99387.72
2023-04-09T20:21:07.515Z,99382.78
2023-04-09T20:23:09.162Z,99387.19
2023-04-09T20:25:11.835Z,99391.31
2023-04-09T20:27:13.527Z,99393.84
2023-04-09T20:29:14.954Z,99401.28
2023-04-09T20:31:16.990Z,99401.56
2023-04-09T20:33:18.757Z,99401.00
2023-04-09T20:35:23.029Z,99402.69
2023-04-09T20:37:24.524Z,99396.34
2023-04-09T20:39:28.685Z,99405.47
2023-04-09T20:41:30.719Z,99404.94
2023-04-09T20:43:32.431Z,99398.84
2023-04-09T20:45:34.038Z,99406.88
2023-04-09T20:47:35.555Z,99404.97
2023-04-09T20:49:37.225Z,99413.78
2023-04-09T20:51:38.805Z,99406.06
2023-04-09T20:53:42.816Z,99411.31
2023-04-09T20:55:45.951Z,99414.34
2023-04-09T20:57:47.704Z,99408.56
2023-04-09T20:59:53.876Z,99410.75
2023-04-09T21:01:56.067Z,99414.34
2023-04-09T21:03:58.271Z,99411.59
2023-04-09T21:06:00.402Z,99420.44
2023-04-09T21:08:02.112Z,99413.53
2023-04-09T21:10:06.291Z,99408.56
2023-04-09T21:12:07.953Z,99406.34
2023-04-09T21:14:11.048Z,99407.19
2023-04-09T21:16:12.627Z,99409.66
2023-04-09T21:18:16.217Z,99408.28
2023-04-09T21:20:19.397Z,99407.13
2023-04-09T21:22:21.192Z,99400.50
2023-04-09T21:24:23.930Z,99409.28
2023-04-09T21:26:25.395Z,99400.69
2023-04-09T21:28:26.832Z,99405.88
2023-04-09T21:30:28.988Z,99417.34
2023-04-09T21:32:31.259Z,99413.72
2023-04-09T21:34:33.047Z,99418.88
2023-04-09T21:36:37.569Z,99402.63
2023-04-09T21:38:39.301Z,99407.81
2023-04-09T21:40:40.914Z,99406.19
2023-04-09T21:42:42.493Z,99399.84
2023-04-09T21:44:44.131Z,99398.44
2023-04-09T21:46:46.060Z,99405.88
2023-04-09T21:48:47.551Z,99404.22
2023-04-09T21:50:49.082Z,99401.22
2023-04-09T21:52:52.489Z,99400.13
2023-04-09T21:54:54.038Z,99399.00
2023-04-09T21:56:55.482Z,99402.88
2023-04-09T21:58:58.158Z,99405.34
2023-04-09T22:00:59.686Z,99406.19
2023-04-09T22:03:01.819Z,99410.84
2023-04-09T22:05:03.760Z,99407.81
2023-04-09T22:07:05.386Z,99404.53
2023-04-09T22:09:06.835Z,99399.59
2023-04-09T22:11:08.215Z,99405.09
2023-04-09T22:13:09.689Z,99405.94
2023-04-09T22:15:12.242Z,99409.22
2023-04-09T22:17:13.800Z,99405.41
2023-04-09T22:19:15.344Z,99407.88
2023-04-09T22:21:17.555Z,99408.72
2023-04-09T22:23:19.204Z,99415.59
2023-04-09T22:25:21.113Z,99412.84
2023-04-09T22:27:22.647Z,99414.25
2023-04-09T22:29:30.577Z,99405.16
2023-04-09T22:31:32.322Z,99406.81
2023-04-09T22:33:36.717Z,99411.50
2023-04-09T22:35:38.233Z,99414.25
2023-04-09T22:37:39.663Z,99414.00
2023-04-09T22:39:41.308Z,99415.63
2023-04-09T22:41:43.139Z,99413.44
2023-04-09T22:43:47.209Z,99416.19
2023-04-09T22:45:54.316Z,99424.44
2023-04-09T22:47:59.413Z,99425.28
2023-04-09T22:50:01.365Z,99421.69
2023-04-09T22:52:02.947Z,99425.81
2023-04-09T22:54:04.457Z,99426.66
2023-04-09T22:56:07.195Z,99420.06
2023-04-09T22:58:11.342Z,99425.56
2023-04-09T23:00:14.003Z,99426.66
2023-04-09T23:02:15.764Z,99430.25
2023-04-09T23:04:18.002Z,99425.81
2023-04-09T23:06:21.732Z,99423.63
2023-04-09T23:08:26.277Z,99425.56
2023-04-09T23:10:27.975Z,99418.38
2023-04-09T23:12:29.631Z,99419.50
2023-04-09T23:14:31.207Z,99415.91
2023-04-09T23:16:32.759Z,99413.41
2023-04-09T23:18:35.743Z,99420.28
2023-04-09T23:20:37.233Z,99424.97
2023-04-09T23:22:38.843Z,99420.81
2023-04-09T23:24:40.470Z,99423.00
2023-04-09T23:26:45.020Z,99417.78
2023-04-09T23:28:46.486Z,99424.63
2023-04-09T23:30:48.515Z,99410.03
2023-04-09T23:33:01.275Z,99421.31
2023-04-09T23:35:03.628Z,99406.19
2023-04-09T23:37:05.351Z,99415.50
2023-04-09T23:39:06.802Z,99418.25
2023-04-09T23:41:17.478Z,99421.53
2023-04-09T23:43:24.769Z,99416.03
2023-04-09T23:45:28.585Z,99414.41
2023-04-09T23:47:35.527Z,99412.72
2023-04-09T23:49:40.782Z,99415.50
2023-04-09T23:51:42.214Z,99412.72
2023-04-09T23:53:44.158Z,99401.19
2023-04-09T23:55:47.765Z,99411.09
2023-04-09T23:57:51.864Z,99403.09
2023-04-09T23:59:53.866Z,99400.63
